createdAt,value
2019-04-03T00:02:08.155Z,99530.84
2019-04-03T00:04:36.468Z,99529.07
2019-04-03T00:07:05.944Z,99526.44
2019-04-03T00:09:35.865Z,99526.13
2019-04-03T00:12:04.443Z,99519.69
2019-04-03T00:14:33.179Z,99526.72
2019-04-03T00:17:01.470Z,99535.44
2019-04-03T00:19:29.766Z,99533.42
2019-04-03T00:21:58.078Z,99541.77
2019-04-03T00:24:26.375Z,99534.52
2019-04-03T00:26:54.698Z,99542.42
2019-04-03T00:29:23.002Z,99542.73
2019-04-03T00:31:52.989Z,99544.69
2019-04-03T00:34:22.987Z,99547.83
2019-04-03T00:36:52.937Z,99539.56
2019-04-03T00:39:23.957Z,99547.27
2019-04-03T00:41:52.872Z,99547.11
2019-04-03T00:44:23.986Z,99557.81
2019-04-03T00:46:51.685Z,99546.82
2019-04-03T00:49:19.992Z,99551.48
2019-04-03T00:51:48.295Z,99542.70
2019-04-03T00:54:16.682Z,99538.59
2019-04-03T00:56:45.312Z,99534.28
2019-04-03T00:59:13.617Z,99544.52
2019-04-03T01:01:42.049Z,99543.51
2019-04-03T01:04:10.317Z,99546.95
2019-04-03T01:06:38.948Z,99542.89
2019-04-03T01:09:08.005Z,99539.10
2019-04-03T01:11:36.620Z,99529.43
2019-04-03T01:14:05.706Z,99516.00
2019-04-03T01:16:34.032Z,99524.58
2019-04-03T01:19:05.183Z,99529.90
2019-04-03T01:21:32.363Z,99527.63
2019-04-03T01:24:00.715Z,99522.05
2019-04-03T01:26:29.092Z,99518.45
2019-04-03T01:28:57.394Z,99514.87
2019-04-03T01:31:25.718Z,99518.00
2019-04-03T01:33:54.304Z,99506.01
2019-04-03T01:36:22.679Z,99502.06
2019-04-03T01:38:51.580Z,99500.44
2019-04-03T01:41:21.218Z,99500.09
2019-04-03T01:43:50.162Z,99504.05
2019-04-03T01:46:18.452Z,99509.00
2019-04-03T01:48:46.779Z,99508.19
2019-04-03T01:51:15.394Z,99507.69
2019-04-03T01:53:43.688Z,99515.28
2019-04-03T01:56:11.976Z,99517.27
2019-04-03T01:58:40.627Z,99530.13
2019-04-03T02:01:08.943Z,99524.86
2019-04-03T02:03:37.255Z,99522.89
2019-04-03T02:06:05.572Z,99522.89
2019-04-03T02:08:33.865Z,99518.77
2019-04-03T02:11:02.175Z,99524.70
2019-04-03T02:13:30.471Z,99529.30
2019-04-03T02:15:58.791Z,99527.99
2019-04-03T02:18:27.279Z,99531.65
2019-04-03T02:20:57.370Z,99530.02
2019-04-03T02:23:26.080Z,99531.19
2019-04-03T02:25:54.321Z,99532.70
2019-04-03T02:28:22.626Z,99530.55
2019-04-03T02:30:51.037Z,99534.83
2019-04-03T02:33:19.825Z,99539.59
2019-04-03T02:35:48.821Z,99537.01
2019-04-03T02:38:17.157Z,99538.33
2019-04-03T02:40:45.452Z,99530.93
2019-04-03T02:43:15.085Z,99521.21
2019-04-03T02:45:44.227Z,99518.44
2019-04-03T02:48:12.840Z,99524.20
2019-04-03T02:50:41.397Z,99525.00
2019-04-03T02:53:10.315Z,99525.98
2019-04-03T02:55:40.073Z,99516.41
2019-04-03T02:58:08.795Z,99515.75
2019-04-03T03:00:37.119Z,99509.16
2019-04-03T03:03:05.415Z,99513.11
2019-04-03T03:05:34.320Z,99515.89
2019-04-03T03:08:02.627Z,99520.81
2019-04-03T03:10:31.908Z,99514.12
2019-04-03T03:13:02.251Z,99507.20
2019-04-03T03:15:30.588Z,99506.08
2019-04-03T03:17:59.206Z,99506.59
2019-04-03T03:20:29.238Z,99503.84
2019-04-03T03:22:57.609Z,99513.72
2019-04-03T03:25:26.416Z,99511.63
2019-04-03T03:27:55.081Z,99505.72
2019-04-03T03:30:42.214Z,99506.53
2019-04-03T03:33:19.534Z,99517.05
2019-04-03T03:35:30.121Z,99519.06
2019-04-03T03:37:54.702Z,99518.88
2019-04-03T03:40:23.098Z,99503.76
2019-04-03T03:42:51.457Z,99493.93
2019-04-03T03:45:21.723Z,99496.34
2019-04-03T03:47:50.195Z,99496.84
2019-04-03T03:50:23.934Z,99502.41
2019-04-03T03:52:52.073Z,99503.73
2019-04-03T03:55:22.795Z,99507.67
2019-04-03T03:57:51.157Z,99509.80
2019-04-03T04:00:22.581Z,99517.19
2019-04-03T04:02:49.811Z,99513.94
2019-04-03T04:05:21.380Z,99506.75
2019-04-03T04:07:48.269Z,99509.03
2019-04-03T04:10:16.576Z,99509.89
2019-04-03T04:12:45.663Z,99516.66
2019-04-03T04:15:14.118Z,99510.23
2019-04-03T04:17:42.596Z,99512.05
2019-04-03T04:20:12.000Z,99505.98
2019-04-03T04:22:40.590Z,99514.68
2019-04-03T04:25:08.936Z,99512.55
2019-04-03T04:27:39.139Z,99512.55
2019-04-03T04:30:08.111Z,99512.55
2019-04-03T04:32:36.614Z,99503.53
2019-04-03T04:35:06.547Z,99509.45
2019-04-03T04:37:34.860Z,99506.83
2019-04-03T04:40:03.362Z,99505.70
2019-04-03T04:42:34.362Z,99495.34
2019-04-03T04:45:02.276Z,99493.72
2019-04-03T04:47:30.577Z,99492.25
2019-04-03T04:49:58.864Z,99491.94
2019-04-03T04:52:27.686Z,99489.12
2019-04-03T04:54:56.489Z,99480.06
2019-04-03T04:57:25.166Z,99485.83
2019-04-03T04:59:53.573Z,99493.41
2019-04-03T05:02:22.208Z,99494.06
2019-04-03T05:04:50.506Z,99494.88
2019-04-03T05:07:19.253Z,99498.20
2019-04-03T05:09:47.483Z,99497.70
2019-04-03T05:12:16.424Z,99490.78
2019-04-03T05:14:44.725Z,99491.28
2019-04-03T05:17:13.072Z,99493.41
2019-04-03T05:19:41.323Z,99494.56
2019-04-03T05:22:09.984Z,99502.27
2019-04-03T05:24:38.354Z,99502.77
2019-04-03T05:27:08.305Z,99501.14
2019-04-03T05:29:36.782Z,99501.80
2019-04-03T05:32:05.435Z,99496.73
2019-04-03T05:34:33.825Z,99499.20
2019-04-03T05:37:02.117Z,99501.52
2019-04-03T05:39:30.414Z,99506.13
2019-04-03T05:41:59.661Z,99507.75
2019-04-03T05:44:28.536Z,99509.56
2019-04-03T05:46:59.465Z,99507.63
2019-04-03T05:49:26.875Z,99511.23
2019-04-03T05:51:55.799Z,99509.28
2019-04-03T05:54:24.099Z,99510.12
2019-04-03T05:56:52.569Z,99513.92
2019-04-03T05:59:21.207Z,99516.89
2019-04-03T06:01:49.643Z,99511.81
2019-04-03T06:04:18.387Z,99519.39
2019-04-03T06:06:47.293Z,99512.84
2019-04-03T06:09:15.839Z,99514.19
2019-04-03T06:11:44.146Z,99510.25
2019-04-03T06:14:12.834Z,99510.91
2019-04-03T06:16:41.663Z,99508.59
2019-04-03T06:19:09.979Z,99506.65
2019-04-03T06:21:38.295Z,99506.49
2019-04-03T06:24:06.856Z,99512.75
2019-04-03T06:26:37.148Z,99512.40
2019-04-03T06:29:07.298Z,99514.71
2019-04-03T06:31:35.821Z,99507.14
2019-04-03T06:34:07.011Z,99503.39
2019-04-03T06:36:34.409Z,99497.16
2019-04-03T06:39:03.224Z,99503.41
2019-04-03T06:41:31.802Z,99504.55
2019-04-03T06:44:00.115Z,99503.89
2019-04-03T06:46:29.886Z,99511.09
2019-04-03T06:48:58.435Z,99499.23
2019-04-03T06:51:26.799Z,99498.73
2019-04-03T06:53:55.070Z,99497.45
2019-04-03T06:56:23.658Z,99495.82
2019-04-03T06:58:52.125Z,99493.38
2019-04-03T07:01:20.570Z,99495.69
2019-04-03T07:03:49.124Z,99491.25
2019-04-03T07:06:18.001Z,99495.19
2019-04-03T07:08:46.280Z,99499.16
2019-04-03T07:11:23.179Z,99507.72
2019-04-03T07:13:44.925Z,99510.03
2019-04-03T07:16:13.342Z,99519.05
2019-04-03T07:18:41.883Z,99512.95
2019-04-03T07:21:10.197Z,99518.37
2019-04-03T07:23:39.101Z,99525.25
2019-04-03T07:26:07.490Z,99526.56
2019-04-03T07:28:35.782Z,99535.08
2019-04-03T07:31:04.392Z,99532.95
2019-04-03T07:33:32.963Z,99540.48
2019-04-03T07:36:01.590Z,99541.15
2019-04-03T07:38:30.101Z,99530.45
2019-04-03T07:40:58.412Z,99536.37
2019-04-03T07:43:27.561Z,99539.47
2019-04-03T07:45:56.309Z,99540.59
2019-04-03T07:48:24.600Z,99548.14
2019-04-03T07:50:53.047Z,99556.00
2019-04-03T07:53:21.472Z,99547.80
2019-04-03T07:55:50.137Z,99550.27
2019-04-03T07:58:18.714Z,99551.11
2019-04-03T08:00:47.038Z,99552.89
2019-04-03T08:03:15.665Z,99547.98
2019-04-03T08:05:44.374Z,99548.77
2019-04-03T08:08:13.222Z,99555.00
2019-04-03T08:10:42.005Z,99557.79
2019-04-03T08:13:10.311Z,99554.66
2019-04-03T08:15:38.883Z,99555.66
2019-04-03T08:18:07.373Z,99552.69
2019-04-03T08:20:35.985Z,99552.56
2019-04-03T08:23:05.630Z,99553.22
2019-04-03T08:25:35.097Z,99555.69
2019-04-03T08:28:03.484Z,99553.24
2019-04-03T08:30:31.774Z,99544.70
2019-04-03T08:33:00.262Z,99550.11
2019-04-03T08:35:28.698Z,99553.88
2019-04-03T08:37:57.273Z,99559.84
2019-04-03T08:40:25.862Z,99557.87
2019-04-03T08:42:54.422Z,99561.30
2019-04-03T08:45:23.339Z,99564.91
2019-04-03T08:47:51.708Z,99555.69
2019-04-03T08:50:20.047Z,99555.53
2019-04-03T08:52:48.912Z,99557.94
2019-04-03T08:55:17.461Z,99559.27
2019-04-03T08:57:46.862Z,99559.02
2019-04-03T09:00:17.344Z,99554.73
2019-04-03T09:02:45.742Z,99567.50
2019-04-03T09:05:15.137Z,99567.00
2019-04-03T09:07:43.652Z,99564.84
2019-04-03T09:10:13.485Z,99561.17
2019-04-03T09:12:42.074Z,99571.16
2019-04-03T09:15:11.316Z,99564.27
2019-04-03T09:17:39.937Z,99563.11
2019-04-03T09:20:08.406Z,99564.77
2019-04-03T09:22:36.738Z,99559.16
2019-04-03T09:25:06.870Z,99564.08
2019-04-03T09:27:35.174Z,99566.02
2019-04-03T09:30:11.817Z,99569.77
2019-04-03T09:32:40.113Z,99562.03
2019-04-03T09:35:08.755Z,99558.39
2019-04-03T09:37:38.100Z,99552.90
2019-04-03T09:40:07.440Z,99546.01
2019-04-03T09:42:35.855Z,99551.95
2019-04-03T09:45:07.504Z,99552.17
2019-04-03T09:47:35.824Z,99550.42
2019-04-03T09:50:06.918Z,99551.66
2019-04-03T09:52:42.070Z,99536.71
2019-04-03T09:55:06.269Z,99535.23
2019-04-03T09:57:34.601Z,99537.31
2019-04-03T10:00:04.099Z,99523.69
2019-04-03T10:02:32.420Z,99515.99
2019-04-03T10:05:01.041Z,99529.59
2019-04-03T10:07:31.453Z,99517.39
2019-04-03T10:09:59.377Z,99538.34
2019-04-03T10:12:27.666Z,99546.74
2019-04-03T10:14:57.042Z,99549.02
2019-04-03T10:17:26.032Z,99559.48
2019-04-03T10:19:54.583Z,99551.31
2019-04-03T10:22:24.173Z,99554.09
2019-04-03T10:24:53.045Z,99548.83
2019-04-03T10:27:21.662Z,99540.13
2019-04-03T10:29:50.841Z,99547.36
2019-04-03T10:32:19.423Z,99545.31
2019-04-03T10:34:48.029Z,99547.41
2019-04-03T10:37:16.321Z,99535.45
2019-04-03T10:39:44.973Z,99532.20
2019-04-03T10:42:13.486Z,99536.92
2019-04-03T10:44:42.276Z,99536.65
2019-04-03T10:47:10.576Z,99527.48
2019-04-03T10:49:39.134Z,99528.17
2019-04-03T10:52:07.450Z,99524.27
2019-04-03T10:54:38.055Z,99521.33
2019-04-03T10:57:06.434Z,99523.77
2019-04-03T10:59:34.786Z,99513.31
2019-04-03T11:02:03.121Z,99507.87
2019-04-03T11:04:31.417Z,99508.06
2019-04-03T11:07:00.099Z,99497.03
2019-04-03T11:09:28.436Z,99495.75
2019-04-03T11:11:58.273Z,99490.30
2019-04-03T11:14:27.173Z,99488.63
2019-04-03T11:16:55.818Z,99489.17
2019-04-03T11:19:24.302Z,99483.20
2019-04-03T11:21:55.746Z,99487.86
2019-04-03T11:24:23.423Z,99494.45
2019-04-03T11:26:52.510Z,99492.41
2019-04-03T11:29:21.426Z,99476.77
2019-04-03T11:31:50.370Z,99478.37
2019-04-03T11:34:19.192Z,99477.59
2019-04-03T11:36:47.649Z,99472.50
2019-04-03T11:39:16.791Z,99466.53
2019-04-03T11:41:45.161Z,99468.09
2019-04-03T11:44:13.902Z,99446.92
2019-04-03T11:46:42.372Z,99432.00
2019-04-03T11:49:11.014Z,99434.16
2019-04-03T11:51:39.567Z,99423.77
2019-04-03T11:54:08.584Z,99416.98
2019-04-03T11:56:37.463Z,99421.68
2019-04-03T11:59:05.768Z,99426.59
2019-04-03T12:01:34.154Z,99437.05
2019-04-03T12:04:02.756Z,99441.31
2019-04-03T12:06:31.134Z,99443.53
2019-04-03T12:09:01.029Z,99437.11
2019-04-03T12:11:29.512Z,99435.99
2019-04-03T12:13:57.812Z,99425.17
2019-04-03T12:16:26.621Z,99423.78
2019-04-03T12:18:55.019Z,99424.23
2019-04-03T12:21:23.322Z,99430.68
2019-04-03T12:23:51.741Z,99421.95
2019-04-03T12:26:21.282Z,99416.19
2019-04-03T12:28:50.210Z,99410.47
2019-04-03T12:31:19.293Z,99406.63
2019-04-03T12:33:56.835Z,99416.11
2019-04-03T12:36:18.091Z,99431.61
2019-04-03T12:38:46.653Z,99437.98
2019-04-03T12:41:15.580Z,99415.66
2019-04-03T12:43:43.860Z,99409.65
2019-04-03T12:46:12.488Z,99414.02
2019-04-03T12:48:41.104Z,99412.47
2019-04-03T12:51:09.382Z,99417.80
2019-04-03T12:53:37.925Z,99411.19
2019-04-03T12:56:06.587Z,99406.38
2019-04-03T12:58:36.299Z,99412.69
2019-04-03T13:01:05.150Z,99416.69
2019-04-03T13:03:36.389Z,99407.28
2019-04-03T13:06:03.869Z,99405.45
2019-04-03T13:08:32.188Z,99406.84
2019-04-03T13:11:00.763Z,99402.36
2019-04-03T13:13:29.170Z,99402.36
2019-04-03T13:15:57.473Z,99394.52
2019-04-03T13:18:25.765Z,99391.55
2019-04-03T13:20:54.391Z,99393.14
2019-04-03T13:23:22.686Z,99385.40
2019-04-03T13:25:53.100Z,99384.72
2019-04-03T13:28:21.627Z,99377.09
2019-04-03T13:30:50.269Z,99365.30
2019-04-03T13:33:18.620Z,99360.92
2019-04-03T13:35:48.359Z,99354.60
2019-04-03T13:38:17.547Z,99351.95
2019-04-03T13:40:46.095Z,99343.90
2019-04-03T13:43:15.025Z,99334.34
2019-04-03T13:45:43.809Z,99330.48
2019-04-03T13:48:13.404Z,99317.48
2019-04-03T13:50:45.045Z,99320.42
2019-04-03T13:53:12.736Z,99322.56
2019-04-03T13:55:41.203Z,99330.91
2019-04-03T13:58:09.516Z,99329.98
2019-04-03T14:00:37.866Z,99326.31
2019-04-03T14:03:06.177Z,99320.02
2019-04-03T14:05:34.892Z,99322.39
2019-04-03T14:08:06.037Z,99320.95
2019-04-03T14:10:34.013Z,99326.56
2019-04-03T14:13:02.344Z,99328.63
2019-04-03T14:15:31.134Z,99317.58
2019-04-03T14:17:59.524Z,99325.05
2019-04-03T14:20:28.709Z,99328.23
2019-04-03T14:22:56.978Z,99323.39
2019-04-03T14:25:28.107Z,99325.48
2019-04-03T14:27:55.980Z,99325.86
2019-04-03T14:30:24.623Z,99324.24
2019-04-03T14:32:54.668Z,99326.16
2019-04-03T14:35:45.194Z,99317.27
2019-04-03T14:37:53.414Z,99313.98
2019-04-03T14:40:22.067Z,99316.16
2019-04-03T14:42:50.841Z,99310.42
2019-04-03T14:45:19.853Z,99311.98
2019-04-03T14:47:48.568Z,99303.08
2019-04-03T14:50:17.085Z,99310.02
2019-04-03T14:52:47.653Z,99313.28
2019-04-03T14:55:19.802Z,99311.75
2019-04-03T14:57:45.628Z,99312.66
2019-04-03T15:00:25.651Z,99314.31
2019-04-03T15:02:44.432Z,99308.45
2019-04-03T15:05:12.991Z,99309.42
2019-04-03T15:07:41.347Z,99308.84
2019-04-03T15:10:10.080Z,99310.30
2019-04-03T15:12:39.871Z,99311.83
2019-04-03T15:15:09.703Z,99318.43
2019-04-03T15:17:38.739Z,99316.00
2019-04-03T15:20:08.545Z,99307.45
2019-04-03T15:22:37.144Z,99302.08
2019-04-03T15:25:06.482Z,99290.08
2019-04-03T15:27:34.739Z,99279.30
2019-04-03T15:30:03.034Z,99291.30
2019-04-03T15:32:32.049Z,99288.03
2019-04-03T15:35:01.217Z,99282.96
2019-04-03T15:37:29.997Z,99286.31
2019-04-03T15:39:59.129Z,99281.38
2019-04-03T15:42:27.988Z,99302.42
2019-04-03T15:44:57.727Z,99303.44
2019-04-03T15:47:35.180Z,99306.66
2019-04-03T15:49:58.746Z,99309.25
2019-04-03T15:52:26.445Z,99324.13
2019-04-03T15:54:54.776Z,99319.70
2019-04-03T15:57:23.258Z,99318.36
2019-04-03T15:59:52.761Z,99325.25
2019-04-03T16:02:21.514Z,99324.02
2019-04-03T16:04:50.370Z,99326.20
2019-04-03T16:07:18.933Z,99325.17
2019-04-03T16:09:49.633Z,99321.48
2019-04-03T16:12:17.831Z,99312.12
2019-04-03T16:14:46.848Z,99317.91
2019-04-03T16:17:15.561Z,99310.50
2019-04-03T16:19:44.769Z,99299.44
2019-04-03T16:22:13.684Z,99301.77
2019-04-03T16:24:44.279Z,99298.33
2019-04-03T16:27:12.006Z,99293.94
2019-04-03T16:29:41.324Z,99286.92
2019-04-03T16:32:10.294Z,99290.25
2019-04-03T16:34:40.817Z,99295.61
2019-04-03T16:37:08.673Z,99292.17
2019-04-03T16:39:36.975Z,99288.81
2019-04-03T16:42:05.438Z,99289.91
2019-04-03T16:44:34.003Z,99286.64
2019-04-03T16:47:02.893Z,99283.36
2019-04-03T16:49:31.595Z,99285.91
2019-04-03T16:51:59.865Z,99268.81
2019-04-03T16:54:29.601Z,99271.15
2019-04-03T16:56:58.280Z,99268.89
2019-04-03T16:59:26.696Z,99266.64
2019-04-03T17:01:54.945Z,99268.16
2019-04-03T17:04:27.202Z,99272.80
2019-04-03T17:06:53.791Z,99264.59
2019-04-03T17:09:22.090Z,99265.48
2019-04-03T17:11:51.195Z,99260.89
2019-04-03T17:14:23.671Z,99259.95
2019-04-03T17:16:50.480Z,99259.65
2019-04-03T17:19:18.948Z,99258.20
2019-04-03T17:21:47.244Z,99256.79
2019-04-03T17:24:17.826Z,99262.61
2019-04-03T17:26:50.895Z,99253.16
2019-04-03T17:29:17.022Z,99269.34
2019-04-03T17:31:45.532Z,99276.99
2019-04-03T17:34:13.824Z,99272.30
2019-04-03T17:36:42.360Z,99273.69
2019-04-03T17:39:11.174Z,99277.20
2019-04-03T17:41:39.512Z,99265.73
2019-04-03T17:44:07.837Z,99264.58
2019-04-03T17:46:36.138Z,99271.03
2019-04-03T17:49:04.987Z,99266.98
2019-04-03T17:51:34.197Z,99272.92
2019-04-03T17:54:02.477Z,99269.34
2019-04-03T17:56:30.844Z,99278.94
2019-04-03T17:58:59.191Z,99269.28
2019-04-03T18:01:27.501Z,99271.98
2019-04-03T18:03:55.819Z,99275.30
2019-04-03T18:06:27.170Z,99276.17
2019-04-03T18:08:54.190Z,99284.44
2019-04-03T18:11:22.471Z,99294.05
2019-04-03T18:13:50.754Z,99300.00
2019-04-03T18:16:19.068Z,99302.69
2019-04-03T18:18:49.883Z,99317.84
2019-04-03T18:21:18.380Z,99335.52
2019-04-03T18:23:46.698Z,99338.06
2019-04-03T18:26:15.005Z,99341.12
2019-04-03T18:28:43.318Z,99326.56
2019-04-03T18:31:11.779Z,99317.27
2019-04-03T18:33:41.860Z,99326.34
2019-04-03T18:36:10.184Z,99322.98
2019-04-03T18:38:39.104Z,99312.61
2019-04-03T18:41:07.448Z,99308.58
2019-04-03T18:43:35.747Z,99306.32
2019-04-03T18:46:04.118Z,99310.51
2019-04-03T18:48:32.413Z,99304.80
2019-04-03T18:51:00.720Z,99315.16
2019-04-03T18:53:29.057Z,99312.74
2019-04-03T18:55:57.386Z,99309.34
2019-04-03T18:58:25.686Z,99323.03
2019-04-03T19:00:53.981Z,99322.08
2019-04-03T19:03:22.279Z,99327.69
2019-04-03T19:05:50.604Z,99334.92
2019-04-03T19:08:18.886Z,99328.54
2019-04-03T19:10:47.199Z,99346.94
2019-04-03T19:13:15.564Z,99358.42
2019-04-03T19:15:43.939Z,99362.24
2019-04-03T19:18:19.380Z,99354.70
2019-04-03T19:20:43.408Z,99354.70
2019-04-03T19:23:12.652Z,99359.97
2019-04-03T19:25:41.046Z,99382.30
2019-04-03T19:28:09.365Z,99384.92
2019-04-03T19:30:38.032Z,99391.16
2019-04-03T19:33:06.757Z,99381.64
2019-04-03T19:35:35.062Z,99368.36
2019-04-03T19:38:04.991Z,99376.73
2019-04-03T19:40:33.477Z,99374.92
2019-04-03T19:43:01.778Z,99374.45
2019-04-03T19:45:30.110Z,99377.44
2019-04-03T19:47:58.675Z,99372.02
2019-04-03T19:50:26.978Z,99367.58
2019-04-03T19:52:55.260Z,99366.45
2019-04-03T19:55:24.188Z,99373.99
2019-04-03T19:57:52.817Z,99374.18
2019-04-03T20:00:21.202Z,99384.37
2019-04-03T20:02:49.598Z,99383.72
2019-04-03T20:05:19.040Z,99382.09
2019-04-03T20:07:47.836Z,99379.12
2019-04-03T20:10:16.229Z,99369.31
2019-04-03T20:12:44.519Z,99371.78
2019-04-03T20:15:12.942Z,99380.66
2019-04-03T20:17:41.252Z,99368.84
2019-04-03T20:20:10.874Z,99368.72
2019-04-03T20:22:42.313Z,99373.50
2019-04-03T20:25:09.370Z,99386.48
2019-04-03T20:27:37.767Z,99384.20
2019-04-03T20:30:07.728Z,99381.76
2019-04-03T20:32:36.105Z,99388.98
2019-04-03T20:35:06.229Z,99379.47
2019-04-03T20:37:34.536Z,99372.56
2019-04-03T20:40:03.172Z,99368.63
2019-04-03T20:42:31.510Z,99379.62
2019-04-03T20:44:59.798Z,99358.47
2019-04-03T20:47:28.214Z,99349.78
2019-04-03T20:49:56.504Z,99343.22
2019-04-03T20:52:24.799Z,99335.02
2019-04-03T20:54:53.829Z,99329.11
2019-04-03T20:57:22.284Z,99325.52
2019-04-03T20:59:58.477Z,99331.46
2019-04-03T21:02:20.675Z,99326.55
2019-04-03T21:04:49.099Z,99328.39
2019-04-03T21:07:17.371Z,99316.08
2019-04-03T21:09:45.666Z,99312.52
2019-04-03T21:12:14.035Z,99312.33
2019-04-03T21:14:42.334Z,99312.52
2019-04-03T21:17:10.625Z,99292.48
2019-04-03T21:19:38.919Z,99290.86
2019-04-03T21:22:07.474Z,99301.55
2019-04-03T21:24:36.088Z,99307.27
2019-04-03T21:27:04.379Z,99312.20
2019-04-03T21:29:32.947Z,99297.95
2019-04-03T21:32:01.234Z,99295.80
2019-04-03T21:34:33.203Z,99287.93
2019-04-03T21:37:01.786Z,99279.73
2019-04-03T21:39:30.180Z,99281.23
2019-04-03T21:41:58.635Z,99290.42
2019-04-03T21:44:27.223Z,99288.95
2019-04-03T21:46:55.799Z,99288.95
2019-04-03T21:49:24.097Z,99292.58
2019-04-03T21:51:52.462Z,99297.98
2019-04-03T21:54:20.764Z,99301.92
2019-04-03T21:56:49.079Z,99305.05
2019-04-03T21:59:17.358Z,99303.73
2019-04-03T22:05:14.121Z,99295.70
2019-04-03T22:07:42.394Z,99298.66
2019-04-03T22:10:11.111Z,99305.91
2019-04-03T22:12:39.398Z,99302.47
2019-04-03T22:15:08.172Z,99302.28
2019-04-03T22:17:36.749Z,99303.28
2019-04-03T22:20:06.223Z,99304.44
2019-04-03T22:22:34.517Z,99303.62
2019-04-03T22:25:02.803Z,99313.13
2019-04-03T22:27:31.126Z,99313.13
2019-04-03T22:29:59.419Z,99319.18
2019-04-03T22:32:27.710Z,99326.90
2019-04-03T22:34:55.989Z,99342.95
2019-04-03T22:37:24.609Z,99340.02
2019-04-03T22:39:52.891Z,99344.11
2019-04-03T22:42:23.199Z,99339.05
2019-04-03T22:44:51.216Z,99329.70
2019-04-03T22:47:19.795Z,99331.02
2019-04-03T22:49:48.110Z,99319.39
2019-04-03T22:52:16.391Z,99309.05
2019-04-03T22:54:45.014Z,99310.55
2019-04-03T22:57:13.310Z,99322.82
2019-04-03T22:59:41.617Z,99327.09
2019-04-03T23:02:10.334Z,99314.95
2019-04-03T23:04:41.822Z,99336.78
2019-04-03T23:07:08.631Z,99337.72
2019-04-03T23:09:37.220Z,99341.02
2019-04-03T23:12:05.525Z,99335.61
2019-04-03T23:14:33.926Z,99332.98
2019-04-03T23:17:02.545Z,99325.94
2019-04-03T23:19:32.482Z,99314.63
2019-04-03T23:22:00.914Z,99313.00
2019-04-03T23:24:29.574Z,99315.28
2019-04-03T23:26:58.215Z,99311.34
2019-04-03T23:29:26.530Z,99303.16
2019-04-03T23:31:54.818Z,99308.41
2019-04-03T23:34:23.125Z,99313.66
2019-04-03T23:36:52.429Z,99306.78
2019-04-03T23:39:21.731Z,99294.66
2019-04-03T23:41:50.023Z,99280.58
2019-04-03T23:44:18.619Z,99278.11
2019-04-03T23:46:47.218Z,99271.89
2019-04-03T23:49:15.890Z,99275.20
2019-04-03T23:51:44.178Z,99271.58
2019-04-03T23:54:12.485Z,99272.25
2019-04-03T23:56:40.789Z,99268.84
2019-04-03T23:59:09.091Z,99260.01
